createdAt,value
2023-05-17T00:07:35.471Z,9.29
2023-05-17T00:10:04.386Z,9.00
2023-05-17T00:12:33.157Z,9.16
2023-05-17T00:15:02.134Z,9.02
2023-05-17T00:17:31.328Z,9.44
2023-05-17T00:20:00.143Z,9.24
2023-05-17T00:22:28.842Z,9.29
2023-05-17T00:24:58.949Z,9.44
2023-05-17T00:27:27.676Z,9.39
2023-05-17T00:29:56.375Z,9.26
2023-05-17T00:32:27.657Z,9.48
2023-05-17T00:34:56.469Z,9.61
2023-05-17T00:37:27.524Z,9.25
2023-05-17T00:39:56.316Z,9.18
2023-05-17T00:42:29.012Z,9.19
2023-05-17T00:44:57.816Z,9.28
2023-05-17T00:47:26.653Z,9.00
2023-05-17T00:49:55.538Z,9.09
2023-05-17T00:52:24.520Z,9.36
2023-05-17T00:54:53.590Z,9.15
2023-05-17T00:57:22.683Z,9.62
2023-05-17T00:59:55.456Z,9.16
2023-05-17T01:02:25.923Z,9.28
2023-05-17T01:04:54.670Z,9.37
2023-05-17T01:07:23.426Z,9.13
2023-05-17T01:09:52.491Z,9.27
2023-05-17T01:12:36.946Z,9.62
2023-05-17T01:15:15.997Z,9.39
2023-05-17T01:17:56.061Z,8.95
2023-05-17T01:20:28.997Z,9.24
2023-05-17T01:23:22.784Z,8.96
2023-05-17T01:25:55.657Z,9.23
2023-05-17T01:28:27.634Z,9.30
2023-05-17T01:30:58.604Z,9.31
2023-05-17T01:33:30.844Z,9.32
2023-05-17T01:35:59.653Z,9.34
2023-05-17T01:38:28.463Z,9.31
2023-05-17T01:41:02.913Z,9.37
2023-05-17T01:43:42.236Z,9.35
2023-05-17T01:46:17.502Z,9.51
2023-05-17T01:48:54.034Z,9.45
2023-05-17T01:51:29.917Z,9.32
2023-05-17T01:54:04.298Z,9.32
2023-05-17T01:56:35.816Z,9.32
2023-05-17T01:59:08.588Z,9.36
2023-05-17T02:01:40.818Z,9.50
2023-05-17T02:04:12.096Z,9.42
2023-05-17T02:06:40.967Z,9.62
2023-05-17T02:09:09.806Z,9.58
2023-05-17T02:11:38.561Z,9.65
2023-05-17T02:14:08.629Z,9.70
2023-05-17T02:16:37.610Z,9.71
2023-05-17T02:19:07.714Z,9.62
2023-05-17T02:21:36.568Z,9.50
2023-05-17T02:24:05.885Z,9.65
2023-05-17T02:26:34.665Z,9.80
2023-05-17T02:29:04.666Z,10.22
2023-05-17T02:31:34.924Z,9.96
2023-05-17T02:34:03.688Z,9.89
2023-05-17T02:36:32.711Z,9.36
2023-05-17T02:39:01.500Z,9.57
2023-05-17T02:41:30.180Z,9.56
2023-05-17T02:44:00.076Z,9.48
2023-05-17T02:46:28.775Z,9.44
2023-05-17T02:48:59.029Z,9.62
2023-05-17T02:51:27.824Z,9.68
2023-05-17T02:53:56.700Z,10.13
2023-05-17T02:56:27.877Z,9.70
2023-05-17T02:58:57.740Z,9.52
2023-05-17T03:01:29.008Z,9.69
2023-05-17T03:03:59.769Z,9.68
2023-05-17T03:06:29.445Z,9.56
2023-05-17T03:08:58.298Z,9.62
2023-05-17T03:11:33.227Z,9.62
2023-05-17T03:14:03.176Z,9.33
2023-05-17T03:16:33.335Z,9.52
2023-05-17T03:19:04.573Z,9.45
2023-05-17T03:21:33.860Z,9.26
2023-05-17T03:24:02.636Z,9.13
2023-05-17T03:26:33.236Z,9.05
2023-05-17T03:29:35.148Z,9.07
2023-05-17T03:32:04.171Z,9.08
2023-05-17T03:34:37.648Z,9.01
2023-05-17T03:37:06.518Z,8.97
2023-05-17T03:39:35.267Z,8.99
2023-05-17T03:42:04.158Z,9.08
2023-05-17T03:44:34.444Z,8.99
2023-05-17T03:47:03.359Z,8.94
2023-05-17T03:49:32.097Z,8.91
2023-05-17T03:52:03.512Z,8.84
2023-05-17T03:54:32.246Z,8.75
2023-05-17T03:57:02.119Z,8.86
2023-05-17T03:59:31.354Z,8.84
2023-05-17T04:02:00.353Z,8.74
2023-05-17T04:04:32.421Z,8.84
2023-05-17T04:07:02.575Z,8.68
2023-05-17T04:09:32.464Z,8.80
2023-05-17T04:12:04.093Z,8.80
2023-05-17T04:14:33.542Z,8.81
2023-05-17T04:17:02.570Z,8.80
2023-05-17T04:19:35.435Z,8.89
2023-05-17T04:22:06.014Z,8.86
2023-05-17T04:24:34.909Z,8.83
2023-05-17T04:27:05.422Z,8.80
2023-05-17T04:29:34.318Z,8.93
2023-05-17T04:32:03.111Z,8.75
2023-05-17T04:39:47.042Z,8.83
2023-05-17T04:42:16.552Z,8.96
2023-05-17T04:44:51.471Z,9.09
2023-05-17T04:47:20.526Z,9.22
2023-05-17T04:49:49.254Z,9.30
2023-05-17T04:52:18.122Z,9.40
2023-05-17T04:54:49.236Z,9.50
2023-05-17T04:57:21.496Z,9.59
2023-05-17T04:59:57.685Z,9.70
2023-05-17T05:02:27.248Z,9.94
2023-05-17T05:04:56.049Z,10.09
2023-05-17T05:07:24.946Z,10.19
2023-05-17T05:09:57.720Z,10.32
2023-05-17T05:12:27.294Z,10.30
2023-05-17T05:15:00.787Z,10.48
2023-05-17T05:18:01.227Z,10.61
2023-05-17T05:20:33.160Z,10.63
2023-05-17T05:23:06.056Z,10.76
2023-05-17T05:25:39.099Z,10.90
2023-05-17T05:28:11.276Z,11.02
2023-05-17T05:30:41.902Z,10.97
2023-05-17T05:33:10.960Z,11.13
2023-05-17T05:35:39.957Z,11.17
2023-05-17T05:38:09.382Z,11.26
2023-05-17T05:40:39.788Z,11.32
2023-05-17T05:43:08.528Z,11.42
2023-05-17T05:45:37.287Z,11.43
2023-05-17T05:48:09.446Z,11.49
2023-05-17T05:50:38.626Z,11.27
2023-05-17T05:53:18.673Z,11.38
2023-05-17T05:55:55.636Z,11.58
2023-05-17T05:58:24.602Z,11.83
2023-05-17T06:00:53.884Z,12.11
2023-05-17T06:03:22.668Z,12.26
2023-05-17T06:05:51.649Z,12.38
2023-05-17T06:08:20.499Z,12.63
2023-05-17T06:10:49.460Z,12.89
2023-05-17T06:13:21.371Z,13.13
2023-05-17T06:15:50.090Z,13.20
2023-05-17T06:18:18.922Z,13.25
2023-05-17T06:20:47.952Z,13.41
2023-05-17T06:23:17.076Z,13.33
2023-05-17T06:25:45.879Z,13.45
2023-05-17T06:28:14.744Z,13.56
2023-05-17T06:30:45.025Z,13.22
2023-05-17T06:33:16.316Z,13.30
2023-05-17T06:35:55.583Z,13.56
2023-05-17T06:38:24.709Z,13.59
2023-05-17T06:40:54.611Z,13.76
2023-05-17T06:43:23.736Z,13.90
2023-05-17T06:45:53.853Z,13.96
2023-05-17T06:48:22.750Z,14.33
2023-05-17T06:50:51.806Z,14.59
2023-05-17T06:53:22.907Z,14.18
2023-05-17T06:55:51.758Z,14.66
2023-05-17T06:58:20.580Z,14.69
2023-05-17T07:00:49.360Z,14.44
2023-05-17T07:03:22.145Z,14.61
2023-05-17T07:05:53.406Z,14.59
2023-05-17T07:08:24.637Z,14.62
2023-05-17T07:10:53.550Z,14.94
2023-05-17T07:13:22.301Z,15.07
2023-05-17T07:15:51.034Z,15.38
2023-05-17T07:18:21.433Z,15.47
2023-05-17T07:20:50.602Z,15.28
2023-05-17T07:23:19.437Z,15.50
2023-05-17T07:25:49.425Z,15.30
2023-05-17T07:28:20.581Z,15.12
2023-05-17T07:30:51.945Z,15.06
2023-05-17T07:33:22.100Z,15.02
2023-05-17T07:35:53.262Z,14.93
2023-05-17T07:38:22.125Z,14.91
2023-05-17T07:40:51.012Z,14.60
2023-05-17T07:43:19.778Z,14.49
2023-05-17T07:45:48.608Z,14.31
2023-05-17T07:48:17.479Z,14.09
2023-05-17T07:50:49.072Z,13.95
2023-05-17T07:53:20.173Z,13.78
2023-05-17T07:55:49.004Z,13.62
2023-05-17T07:58:17.813Z,13.77
2023-05-17T08:00:46.540Z,13.94
2023-05-17T08:03:17.464Z,13.86
2023-05-17T08:05:47.841Z,13.88
2023-05-17T08:08:16.908Z,13.71
2023-05-17T08:10:45.625Z,13.82
2023-05-17T08:13:16.299Z,13.54
2023-05-17T08:15:45.102Z,13.30
2023-05-17T08:18:13.932Z,13.59
2023-05-17T08:20:43.362Z,13.86
2023-05-17T08:23:13.508Z,14.06
2023-05-17T08:25:42.272Z,14.20
2023-05-17T08:28:10.981Z,14.47
2023-05-17T08:30:40.079Z,14.56
2023-05-17T08:33:10.847Z,14.05
2023-05-17T08:35:39.665Z,14.09
2023-05-17T08:38:08.682Z,13.92
2023-05-17T08:40:38.764Z,14.48
2023-05-17T08:43:09.766Z,14.45
2023-05-17T08:45:39.043Z,14.54
2023-05-17T08:50:38.949Z,14.65
2023-05-17T08:53:11.354Z,14.77
2023-05-17T08:55:43.799Z,15.07
2023-05-17T08:58:14.153Z,15.44
2023-05-17T09:00:43.036Z,15.68
2023-05-17T09:03:18.532Z,15.98
2023-05-17T09:05:47.836Z,16.12
2023-05-17T09:08:18.768Z,16.15
2023-05-17T09:10:48.870Z,16.11
2023-05-17T09:13:18.296Z,16.19
2023-05-17T09:15:50.212Z,16.37
2023-05-17T09:18:19.633Z,16.40
2023-05-17T09:20:52.659Z,16.55
2023-05-17T09:23:22.537Z,16.48
2023-05-17T09:25:54.746Z,16.22
2023-05-17T09:28:29.433Z,16.19
2023-05-17T09:30:58.175Z,16.59
2023-05-17T09:33:26.902Z,16.42
2023-05-17T09:35:56.089Z,16.24
2023-05-17T09:38:27.695Z,16.44
2023-05-17T09:40:57.891Z,16.53
2023-05-17T09:43:31.964Z,16.86
2023-05-17T09:46:00.833Z,17.05
2023-05-17T09:48:29.723Z,16.92
2023-05-17T09:50:58.563Z,16.94
2023-05-17T09:53:31.298Z,16.95
2023-05-17T09:56:03.190Z,16.84
2023-05-17T09:58:34.356Z,16.91
2023-05-17T10:01:04.871Z,16.88
2023-05-17T10:03:35.708Z,16.93
2023-05-17T10:06:09.886Z,16.76
2023-05-17T10:08:45.577Z,16.86
2023-05-17T10:11:20.965Z,17.35
2023-05-17T10:13:56.419Z,17.11
2023-05-17T10:16:27.848Z,17.36
2023-05-17T10:18:57.027Z,17.44
2023-05-17T10:21:29.729Z,17.44
2023-05-17T10:24:01.429Z,17.75
2023-05-17T10:26:32.030Z,17.90
2023-05-17T10:29:02.926Z,17.84
2023-05-17T10:31:33.691Z,17.51
2023-05-17T10:34:03.924Z,17.77
2023-05-17T10:36:33.775Z,18.03
2023-05-17T10:39:03.338Z,18.09
2023-05-17T10:41:37.549Z,17.88
2023-05-17T10:44:08.946Z,17.99
2023-05-17T10:46:38.264Z,17.99
2023-05-17T10:49:07.422Z,18.46
2023-05-17T10:51:39.041Z,18.41
2023-05-17T10:54:12.721Z,18.18
2023-05-17T10:56:48.866Z,17.88
2023-05-17T10:59:23.761Z,17.54
2023-05-17T11:01:59.839Z,17.54
2023-05-17T11:04:34.626Z,17.71
2023-05-17T11:07:32.318Z,17.74
2023-05-17T11:10:08.024Z,18.18
2023-05-17T11:12:40.860Z,18.04
2023-05-17T11:15:12.005Z,17.87
2023-05-17T11:17:51.074Z,18.00
2023-05-17T11:20:35.330Z,18.12
2023-05-17T11:23:06.282Z,18.24
2023-05-17T11:25:37.064Z,18.27
2023-05-17T11:28:18.682Z,18.26
2023-05-17T11:30:51.786Z,18.18
2023-05-17T11:33:40.253Z,18.11
2023-05-17T11:36:17.244Z,17.46
2023-05-17T11:38:55.262Z,17.02
2023-05-17T11:41:33.227Z,16.40
2023-05-17T11:44:05.938Z,16.68
2023-05-17T11:46:35.349Z,16.89
2023-05-17T11:49:08.006Z,17.08
2023-05-17T11:51:36.967Z,17.25
2023-05-17T11:54:07.483Z,17.54
2023-05-17T11:56:43.421Z,17.59
2023-05-17T11:59:20.796Z,17.69
2023-05-17T12:01:52.741Z,17.84
2023-05-17T12:04:25.760Z,18.17
2023-05-17T12:06:55.244Z,17.97
2023-05-17T12:09:24.434Z,17.69
2023-05-17T12:11:53.506Z,17.64
2023-05-17T12:14:23.907Z,17.71
2023-05-17T12:16:56.263Z,17.47
2023-05-17T12:19:27.985Z,17.32
2023-05-17T12:22:08.411Z,17.40
2023-05-17T12:24:43.763Z,17.49
2023-05-17T12:27:12.852Z,17.69
2023-05-17T12:29:43.071Z,17.73
2023-05-17T12:32:12.161Z,17.39
2023-05-17T12:34:41.939Z,17.87
2023-05-17T12:37:13.178Z,17.99
2023-05-17T12:39:42.115Z,17.26
2023-05-17T12:42:16.518Z,17.32
2023-05-17T12:44:48.867Z,17.62
2023-05-17T12:47:17.665Z,17.49
2023-05-17T12:49:56.277Z,17.08
2023-05-17T12:52:25.064Z,16.96
2023-05-17T12:55:00.125Z,17.02
2023-05-17T12:57:28.918Z,16.87
2023-05-17T12:59:58.983Z,16.77
2023-05-17T13:02:30.021Z,16.69
2023-05-17T13:04:58.960Z,16.75
2023-05-17T13:07:27.817Z,16.63
2023-05-17T13:09:57.223Z,16.56
2023-05-17T13:12:26.250Z,16.57
2023-05-17T13:14:55.553Z,16.60
2023-05-17T13:17:28.587Z,16.35
2023-05-17T13:19:58.417Z,16.30
2023-05-17T13:22:29.571Z,16.04
2023-05-17T13:24:58.481Z,16.21
2023-05-17T13:27:27.211Z,15.61
2023-05-17T13:29:56.024Z,15.70
2023-05-17T13:32:28.426Z,15.70
2023-05-17T13:34:57.369Z,15.97
2023-05-17T13:37:26.166Z,16.22
2023-05-17T13:39:56.572Z,16.37
2023-05-17T13:42:27.812Z,16.38
2023-05-17T13:44:56.634Z,16.47
2023-05-17T13:47:25.647Z,16.62
2023-05-17T13:49:55.825Z,16.68
2023-05-17T13:52:25.363Z,16.40
2023-05-17T13:54:54.201Z,16.31
2023-05-17T13:57:25.218Z,16.23
2023-05-17T13:59:53.990Z,16.25
2023-05-17T14:02:22.831Z,16.06
2023-05-17T14:04:55.505Z,16.11
2023-05-17T14:07:24.446Z,16.06
2023-05-17T14:09:55.818Z,15.99
2023-05-17T14:12:24.743Z,15.90
2023-05-17T14:14:53.579Z,15.78
2023-05-17T14:17:24.795Z,15.80
2023-05-17T14:19:55.062Z,15.91
2023-05-17T14:22:26.070Z,15.91
2023-05-17T14:24:54.902Z,15.84
2023-05-17T14:27:26.226Z,15.87
2023-05-17T14:29:55.180Z,15.89
2023-05-17T14:32:23.890Z,16.01
2023-05-17T14:34:52.667Z,15.61
2023-05-17T14:37:22.753Z,15.34
2023-05-17T14:40:05.340Z,15.78
2023-05-17T14:42:37.972Z,16.11
2023-05-17T14:45:08.145Z,16.39
2023-05-17T14:47:37.450Z,16.44
2023-05-17T14:50:07.128Z,16.32
2023-05-17T14:52:37.323Z,16.48
2023-05-17T14:55:09.394Z,16.42
2023-05-17T14:57:40.595Z,16.33
2023-05-17T15:00:13.658Z,16.13
2023-05-17T15:02:42.454Z,15.92
2023-05-17T15:05:11.802Z,16.04
2023-05-17T15:07:42.429Z,16.22
2023-05-17T15:10:13.054Z,16.11
2023-05-17T15:12:41.866Z,16.05
2023-05-17T15:15:11.334Z,15.76
2023-05-17T15:17:40.147Z,15.72
2023-05-17T15:20:10.734Z,15.68
2023-05-17T15:22:41.418Z,15.57
2023-05-17T15:25:10.574Z,15.55
2023-05-17T15:27:39.357Z,15.44
2023-05-17T15:30:11.341Z,15.45
2023-05-17T15:32:41.979Z,15.31
2023-05-17T15:35:11.394Z,14.92
2023-05-17T15:37:43.969Z,15.06
2023-05-17T15:40:13.688Z,15.11
2023-05-17T15:42:42.495Z,15.05
2023-05-17T15:45:12.254Z,15.01
2023-05-17T15:47:43.565Z,14.91
2023-05-17T15:50:13.033Z,14.80
2023-05-17T15:52:43.508Z,14.82
2023-05-17T15:55:14.733Z,14.69
2023-05-17T15:57:46.508Z,14.32
2023-05-17T16:00:15.927Z,14.85
2023-05-17T16:02:44.705Z,14.80
2023-05-17T16:05:16.102Z,14.58
2023-05-17T16:07:46.632Z,14.63
2023-05-17T16:10:15.436Z,14.66
2023-05-17T16:12:44.291Z,14.57
2023-05-17T16:15:13.039Z,14.52
2023-05-17T16:17:41.889Z,14.49
2023-05-17T16:20:15.454Z,14.61
2023-05-17T16:22:45.711Z,14.69
2023-05-17T16:25:18.675Z,14.60
2023-05-17T16:27:48.321Z,14.60
2023-05-17T16:30:18.410Z,14.57
2023-05-17T16:32:48.002Z,14.57
2023-05-17T16:35:18.349Z,14.49
2023-05-17T16:37:48.442Z,14.42
2023-05-17T16:40:20.980Z,14.08
2023-05-17T16:42:49.906Z,14.56
2023-05-17T16:45:21.321Z,14.27
2023-05-17T16:47:50.162Z,14.20
2023-05-17T16:50:19.114Z,14.40
2023-05-17T16:52:48.033Z,14.05
2023-05-17T16:55:16.776Z,14.03
2023-05-17T16:57:47.117Z,14.11
2023-05-17T17:00:18.453Z,13.88
2023-05-17T17:02:47.382Z,14.03
2023-05-17T17:05:16.436Z,14.11
2023-05-17T17:07:46.038Z,14.02
2023-05-17T17:10:14.896Z,13.99
2023-05-17T17:12:48.163Z,14.00
2023-05-17T17:15:16.870Z,14.12
2023-05-17T17:17:45.929Z,14.10
2023-05-17T17:20:18.181Z,13.97
2023-05-17T17:22:49.698Z,13.83
2023-05-17T17:25:24.754Z,13.77
2023-05-17T17:27:56.218Z,13.70
2023-05-17T17:30:25.164Z,13.88
2023-05-17T17:32:59.076Z,13.63
2023-05-17T17:35:27.964Z,13.51
2023-05-17T17:37:56.699Z,13.51
2023-05-17T17:40:25.689Z,13.36
2023-05-17T17:42:55.794Z,13.14
2023-05-17T17:45:27.070Z,13.03
2023-05-17T17:47:57.050Z,12.31
2023-05-17T17:50:25.875Z,12.87
2023-05-17T17:52:54.654Z,12.73
2023-05-17T17:55:23.824Z,12.69
2023-05-17T17:57:52.770Z,12.71
2023-05-17T18:00:23.400Z,12.69
2023-05-17T18:02:52.315Z,12.69
2023-05-17T18:05:21.256Z,12.49
2023-05-17T18:07:52.224Z,12.52
2023-05-17T18:10:23.566Z,12.51
2023-05-17T18:12:52.374Z,12.35
2023-05-17T18:15:22.601Z,12.33
2023-05-17T18:17:52.113Z,12.57
2023-05-17T18:20:22.315Z,12.41
2023-05-17T18:22:51.042Z,12.27
2023-05-17T18:25:19.938Z,12.17
2023-05-17T18:27:48.686Z,12.28
2023-05-17T18:30:19.169Z,12.11
2023-05-17T18:32:49.473Z,12.12
2023-05-17T18:35:18.263Z,12.02
2023-05-17T18:37:47.041Z,12.02
2023-05-17T18:40:16.284Z,12.03
2023-05-17T18:42:45.182Z,12.00
2023-05-17T18:45:14.004Z,12.04
2023-05-17T18:47:42.883Z,11.92
2023-05-17T18:50:13.143Z,11.51
2023-05-17T18:52:41.967Z,11.67
2023-05-17T18:55:10.984Z,11.56
2023-05-17T18:57:39.772Z,11.42
2023-05-17T19:00:11.757Z,11.45
2023-05-17T19:02:40.851Z,11.39
2023-05-17T19:05:10.021Z,11.33
2023-05-17T19:07:40.144Z,11.35
2023-05-17T19:10:09.968Z,11.32
2023-05-17T19:12:38.828Z,11.28
2023-05-17T19:15:10.771Z,10.90
2023-05-17T19:17:39.933Z,11.02
2023-05-17T19:20:10.608Z,11.06
2023-05-17T19:22:40.884Z,11.01
2023-05-17T19:25:12.798Z,10.97
2023-05-17T19:27:43.381Z,10.93
2023-05-17T19:30:12.691Z,10.88
2023-05-17T19:32:41.712Z,10.67
2023-05-17T19:35:12.132Z,10.44
2023-05-17T19:37:42.392Z,10.53
2023-05-17T19:40:12.337Z,10.51
2023-05-17T19:42:41.427Z,10.36
2023-05-17T19:45:11.361Z,10.44
2023-05-17T19:47:40.285Z,10.38
2023-05-17T19:50:11.383Z,10.45
2023-05-17T19:52:40.490Z,10.43
2023-05-17T19:55:10.803Z,10.45
2023-05-17T19:57:39.567Z,10.38
2023-05-17T20:00:13.650Z,10.29
2023-05-17T20:02:42.626Z,10.21
2023-05-17T20:05:13.775Z,10.27
2023-05-17T20:07:42.766Z,10.20
2023-05-17T20:10:13.285Z,10.04
2023-05-17T20:12:42.134Z,10.08
2023-05-17T20:15:12.029Z,10.25
2023-05-17T20:17:40.910Z,10.13
2023-05-17T20:20:10.552Z,10.18
2023-05-17T20:22:41.124Z,9.93
2023-05-17T20:25:10.336Z,9.89
2023-05-17T20:27:40.640Z,9.72
2023-05-17T20:30:10.830Z,9.85
2023-05-17T20:32:39.775Z,9.50
2023-05-17T20:35:09.373Z,9.54
2023-05-17T20:37:38.278Z,9.70
2023-05-17T20:40:09.215Z,9.67
2023-05-17T20:42:40.428Z,9.64
2023-05-17T20:45:13.863Z,9.56
2023-05-17T20:47:43.517Z,9.50
2023-05-17T20:50:14.237Z,9.40
2023-05-17T20:52:43.059Z,9.34
2023-05-17T20:55:11.887Z,9.33
2023-05-17T20:57:43.143Z,9.50
2023-05-17T21:00:16.920Z,9.54
2023-05-17T21:02:45.866Z,9.42
2023-05-17T21:05:18.163Z,9.39
2023-05-17T21:07:46.967Z,9.29
2023-05-17T21:10:15.856Z,9.34
2023-05-17T21:12:45.376Z,9.31
2023-05-17T21:15:17.306Z,9.15
2023-05-17T21:17:47.020Z,9.23
2023-05-17T21:20:15.945Z,9.19
2023-05-17T21:22:45.942Z,9.21
2023-05-17T21:25:14.841Z,9.14
2023-05-17T21:27:43.616Z,9.04
2023-05-17T21:30:16.006Z,9.18
2023-05-17T21:32:45.057Z,9.16
2023-05-17T21:35:13.865Z,9.13
2023-05-17T21:37:42.749Z,9.17
2023-05-17T21:40:11.940Z,9.07
2023-05-17T21:42:40.765Z,9.03
2023-05-17T21:45:11.504Z,8.93
2023-05-17T21:47:41.904Z,8.90
2023-05-17T21:50:11.955Z,8.87
2023-05-17T21:52:40.815Z,8.86
2023-05-17T21:55:10.395Z,8.63
2023-05-17T21:57:39.207Z,8.80
2023-05-17T22:00:12.708Z,8.79
2023-05-17T22:02:45.116Z,8.79
2023-05-17T22:05:14.386Z,8.71
2023-05-17T22:07:44.605Z,8.19
2023-05-17T22:10:14.528Z,8.74
2023-05-17T22:12:43.309Z,8.66
2023-05-17T22:15:13.891Z,8.68
2023-05-17T22:17:51.877Z,8.64
2023-05-17T22:20:23.813Z,8.61
2023-05-17T22:22:55.355Z,8.62
2023-05-17T22:25:24.262Z,8.54
2023-05-17T22:27:53.146Z,8.40
2023-05-17T22:30:22.127Z,8.36
2023-05-17T22:32:54.764Z,8.44
2023-05-17T22:35:24.547Z,8.52
2023-05-17T22:37:53.512Z,8.54
2023-05-17T22:40:22.619Z,8.43
2023-05-17T22:42:52.086Z,8.54
2023-05-17T22:45:21.068Z,8.55
2023-05-17T22:47:50.765Z,8.52
2023-05-17T22:50:24.738Z,8.46
2023-05-17T22:52:56.132Z,8.41
2023-05-17T22:55:25.411Z,8.40
2023-05-17T22:57:56.369Z,8.36
2023-05-17T23:00:25.439Z,8.32
2023-05-17T23:02:54.466Z,8.33
2023-05-17T23:05:25.040Z,8.21
2023-05-17T23:07:54.093Z,8.24
2023-05-17T23:10:23.589Z,8.26
2023-05-17T23:12:52.712Z,8.26
2023-05-17T23:15:21.947Z,8.24
2023-05-17T23:17:51.117Z,8.25
2023-05-17T23:20:20.185Z,8.20
2023-05-17T23:22:50.381Z,8.16
2023-05-17T23:25:20.744Z,8.13
2023-05-17T23:27:49.774Z,8.11
2023-05-17T23:30:21.152Z,8.07
2023-05-17T23:32:51.339Z,8.04
2023-05-17T23:35:20.216Z,8.07
2023-05-17T23:37:52.891Z,7.96
2023-05-17T23:40:23.982Z,7.94
2023-05-17T23:42:52.820Z,7.91
2023-05-17T23:45:21.657Z,7.91
2023-05-17T23:47:50.551Z,7.77
2023-05-17T23:50:21.585Z,7.77
2023-05-17T23:52:54.318Z,7.62
2023-05-17T23:55:23.338Z,7.72
2023-05-17T23:57:52.153Z,7.71
